createdAt,value
2022-10-14T00:01:18.694Z,11.50
2022-10-14T00:03:45.517Z,11.50
2022-10-14T00:06:17.393Z,11.50
2022-10-14T00:08:47.266Z,11.50
2022-10-14T00:11:24.625Z,11.40
2022-10-14T00:14:16.111Z,11.40
2022-10-14T00:16:46.371Z,11.40
2022-10-14T00:19:15.011Z,11.40
2022-10-14T00:21:44.661Z,11.40
2022-10-14T00:24:13.900Z,11.50
2022-10-14T00:26:41.633Z,11.40
2022-10-14T00:29:14.828Z,11.40
2022-10-14T00:31:41.724Z,11.40
2022-10-14T00:34:08.475Z,11.40
2022-10-14T00:36:35.188Z,11.40
2022-10-14T00:39:01.889Z,11.40
2022-10-14T00:41:34.132Z,11.40
2022-10-14T00:44:07.301Z,11.30
2022-10-14T00:46:49.080Z,11.40
2022-10-14T00:49:36.780Z,11.40
2022-10-14T00:52:20.297Z,11.40
2022-10-14T00:55:06.413Z,11.40
2022-10-14T00:57:35.600Z,11.40
2022-10-14T01:00:15.145Z,11.40
2022-10-14T01:02:42.811Z,11.40
2022-10-14T01:05:14.019Z,11.40
2022-10-14T01:08:02.653Z,11.40
2022-10-14T01:10:55.590Z,11.40
2022-10-14T01:13:40.364Z,11.40
2022-10-14T01:16:26.385Z,11.40
2022-10-14T01:19:30.496Z,11.40
2022-10-14T01:22:09.830Z,11.40
2022-10-14T01:25:06.965Z,11.40
2022-10-14T01:27:55.455Z,11.40
2022-10-14T01:30:37.280Z,11.40
2022-10-14T01:33:18.375Z,11.40
2022-10-14T01:36:20.732Z,11.50
2022-10-14T01:38:58.340Z,11.50
2022-10-14T01:41:34.752Z,11.50
2022-10-14T01:44:08.801Z,11.50
2022-10-14T01:46:39.433Z,11.50
2022-10-14T01:49:13.642Z,11.50
2022-10-14T01:51:54.515Z,11.50
2022-10-14T01:54:31.117Z,11.50
2022-10-14T01:57:03.306Z,11.50
2022-10-14T01:59:32.773Z,11.50
2022-10-14T02:01:59.551Z,11.50
2022-10-14T02:04:26.352Z,11.50
2022-10-14T02:07:27.902Z,11.50
2022-10-14T02:10:14.031Z,11.50
2022-10-14T02:13:15.105Z,11.50
2022-10-14T02:16:19.713Z,11.50
2022-10-14T02:19:03.080Z,11.50
2022-10-14T02:21:45.248Z,11.50
2022-10-14T02:24:29.224Z,11.50
2022-10-14T02:27:03.158Z,11.50
2022-10-14T02:29:33.432Z,11.50
2022-10-14T02:32:02.885Z,11.60
2022-10-14T02:34:29.613Z,11.50
2022-10-14T02:36:57.225Z,11.50
2022-10-14T02:39:37.277Z,11.50
2022-10-14T02:42:05.477Z,11.50
2022-10-14T02:44:32.289Z,11.50
2022-10-14T02:47:01.732Z,11.50
2022-10-14T02:49:28.783Z,11.50
2022-10-14T02:51:55.492Z,11.60
2022-10-14T02:54:22.250Z,11.60
2022-10-14T02:56:48.957Z,11.60
2022-10-14T02:59:15.679Z,11.60
2022-10-14T03:01:45.710Z,11.60
2022-10-14T03:04:12.433Z,11.60
2022-10-14T03:06:42.035Z,11.60
2022-10-14T03:09:08.727Z,11.70
2022-10-14T03:11:35.492Z,11.70
2022-10-14T03:14:02.200Z,11.70
2022-10-14T03:16:28.919Z,11.70
2022-10-14T03:18:55.639Z,11.70
2022-10-14T03:21:22.579Z,11.70
2022-10-14T03:23:50.550Z,11.70
2022-10-14T03:26:17.709Z,11.70
2022-10-14T03:28:44.693Z,11.70
2022-10-14T03:31:11.420Z,11.70
2022-10-14T03:33:38.173Z,11.70
2022-10-14T03:36:05.085Z,11.80
2022-10-14T03:38:34.572Z,11.80
2022-10-14T03:41:01.342Z,11.80
2022-10-14T03:43:28.425Z,11.80
2022-10-14T03:45:55.164Z,11.80
2022-10-14T03:48:22.606Z,11.80
2022-10-14T03:50:49.712Z,11.80
2022-10-14T03:53:16.452Z,11.80
2022-10-14T03:55:43.197Z,11.80
2022-10-14T03:58:12.221Z,11.70
2022-10-14T04:00:38.930Z,11.70
2022-10-14T04:03:05.648Z,11.80
2022-10-14T04:05:33.938Z,11.70
2022-10-14T04:08:01.625Z,11.70
2022-10-14T04:10:28.623Z,11.70
2022-10-14T04:12:56.139Z,11.70
2022-10-14T04:15:23.544Z,11.70
2022-10-14T04:17:50.349Z,11.80
2022-10-14T04:20:17.532Z,11.70
2022-10-14T04:22:44.371Z,11.70
2022-10-14T04:25:11.160Z,11.70
2022-10-14T04:27:37.899Z,11.70
2022-10-14T04:30:05.864Z,11.70
2022-10-14T04:32:32.653Z,11.70
2022-10-14T04:34:59.406Z,11.70
2022-10-14T04:37:26.126Z,11.70
2022-10-14T04:39:52.822Z,11.70
2022-10-14T04:42:19.878Z,11.90
2022-10-14T04:44:46.800Z,11.70
2022-10-14T04:47:13.569Z,11.70
2022-10-14T04:49:40.299Z,11.70
2022-10-14T04:52:07.062Z,11.80
2022-10-14T04:54:36.308Z,11.80
2022-10-14T04:57:05.842Z,11.80
2022-10-14T04:59:32.696Z,11.80
2022-10-14T05:01:59.542Z,11.80
2022-10-14T05:04:26.360Z,11.80
2022-10-14T05:06:53.053Z,11.70
2022-10-14T05:09:19.755Z,11.70
2022-10-14T05:11:46.779Z,11.80
2022-10-14T05:14:13.515Z,11.80
2022-10-14T05:16:40.245Z,11.80
2022-10-14T05:19:07.014Z,11.80
2022-10-14T05:21:33.707Z,11.80
2022-10-14T05:24:00.399Z,11.80
2022-10-14T05:26:27.119Z,11.70
2022-10-14T05:28:53.869Z,11.70
2022-10-14T05:31:20.706Z,11.70
2022-10-14T05:33:47.496Z,11.70
2022-10-14T05:36:14.288Z,11.70
2022-10-14T05:38:41.382Z,11.70
2022-10-14T05:41:08.112Z,11.70
2022-10-14T05:43:34.799Z,11.70
2022-10-14T05:46:01.580Z,11.70
2022-10-14T05:48:28.483Z,11.70
2022-10-14T05:50:55.226Z,11.60
2022-10-14T05:53:21.933Z,11.60
2022-10-14T05:55:48.738Z,11.70
2022-10-14T05:58:15.548Z,11.70
2022-10-14T06:00:42.245Z,11.70
2022-10-14T06:03:12.921Z,11.70
2022-10-14T06:05:39.738Z,11.70
2022-10-14T06:08:06.481Z,11.70
2022-10-14T06:10:35.005Z,11.70
2022-10-14T06:13:02.262Z,11.70
2022-10-14T06:15:29.039Z,11.70
2022-10-14T06:17:56.055Z,11.70
2022-10-14T06:20:22.856Z,11.80
2022-10-14T06:22:49.549Z,11.80
2022-10-14T06:25:16.643Z,11.80
2022-10-14T06:27:43.464Z,11.80
2022-10-14T06:30:11.275Z,11.90
2022-10-14T06:32:38.004Z,11.80
2022-10-14T06:35:05.784Z,11.80
2022-10-14T06:37:32.504Z,11.90
2022-10-14T06:39:59.237Z,11.90
2022-10-14T06:42:26.731Z,11.90
2022-10-14T06:44:53.719Z,11.90
2022-10-14T06:47:20.858Z,12.00
2022-10-14T06:49:47.571Z,12.00
2022-10-14T06:52:14.393Z,12.00
2022-10-14T06:54:45.916Z,12.10
2022-10-14T06:57:15.313Z,12.10
2022-10-14T06:59:42.067Z,12.20
2022-10-14T07:02:10.646Z,12.40
2022-10-14T07:04:39.385Z,12.30
2022-10-14T07:07:07.525Z,12.30
2022-10-14T07:09:34.564Z,12.30
2022-10-14T07:12:01.430Z,12.30
2022-10-14T07:14:28.188Z,12.30
2022-10-14T07:16:54.996Z,12.30
2022-10-14T07:19:24.236Z,12.30
2022-10-14T07:21:50.940Z,12.30
2022-10-14T07:24:17.812Z,12.40
2022-10-14T07:26:44.560Z,12.40
2022-10-14T07:29:11.560Z,12.50
2022-10-14T07:31:38.304Z,12.60
2022-10-14T07:34:05.104Z,12.70
2022-10-14T07:36:31.891Z,12.70
2022-10-14T07:38:58.626Z,12.70
2022-10-14T07:41:25.783Z,12.70
2022-10-14T07:44:02.647Z,12.70
2022-10-14T07:46:32.227Z,12.70
2022-10-14T07:49:16.098Z,12.70
2022-10-14T07:51:44.438Z,12.70
2022-10-14T07:54:20.005Z,12.70
2022-10-14T07:56:51.212Z,12.80
2022-10-14T07:59:20.188Z,12.70
2022-10-14T08:01:48.727Z,12.70
2022-10-14T08:04:16.793Z,12.80
2022-10-14T08:06:43.499Z,12.80
2022-10-14T08:09:12.538Z,12.80
2022-10-14T08:11:40.399Z,12.90
2022-10-14T08:14:07.500Z,12.90
2022-10-14T08:16:36.017Z,12.90
2022-10-14T08:19:14.306Z,12.80
2022-10-14T08:21:43.356Z,12.80
2022-10-14T08:24:10.717Z,12.80
2022-10-14T08:26:48.115Z,12.80
2022-10-14T08:29:14.857Z,12.90
2022-10-14T08:31:41.642Z,12.90
2022-10-14T08:34:08.409Z,12.90
2022-10-14T08:36:35.244Z,13.00
2022-10-14T08:39:02.098Z,13.00
2022-10-14T08:42:13.273Z,13.00
2022-10-14T08:45:02.662Z,13.00
2022-10-14T08:47:42.573Z,12.90
2022-10-14T08:50:33.067Z,12.90
2022-10-14T08:53:10.260Z,12.90
2022-10-14T08:55:52.661Z,12.90
2022-10-14T08:58:31.745Z,12.90
2022-10-14T09:01:15.018Z,12.90
2022-10-14T09:03:42.747Z,12.90
2022-10-14T09:06:26.351Z,12.80
2022-10-14T09:09:09.265Z,13.00
2022-10-14T09:11:42.604Z,12.90
2022-10-14T09:14:18.728Z,13.00
2022-10-14T09:16:54.201Z,13.00
2022-10-14T09:19:42.175Z,13.00
2022-10-14T09:22:15.018Z,13.10
2022-10-14T09:24:48.430Z,13.20
2022-10-14T09:27:24.625Z,13.30
2022-10-14T09:30:01.423Z,13.30
2022-10-14T09:32:32.737Z,13.30
2022-10-14T09:35:00.386Z,13.20
2022-10-14T09:37:34.652Z,13.10
2022-10-14T09:40:13.513Z,13.10
2022-10-14T09:42:55.252Z,13.00
2022-10-14T09:45:24.901Z,13.10
2022-10-14T09:48:07.795Z,13.10
2022-10-14T09:50:43.600Z,13.00
2022-10-14T09:53:45.619Z,13.00
2022-10-14T09:56:13.107Z,13.00
2022-10-14T09:58:50.902Z,12.90
2022-10-14T10:01:24.567Z,12.90
2022-10-14T10:03:53.094Z,12.90
2022-10-14T10:06:25.781Z,12.90
2022-10-14T10:08:55.516Z,13.00
2022-10-14T10:11:39.392Z,13.10
2022-10-14T10:14:33.764Z,13.20
2022-10-14T10:17:12.768Z,13.20
2022-10-14T10:19:46.831Z,13.30
2022-10-14T10:25:12.233Z,13.30
2022-10-14T10:27:47.857Z,13.30
2022-10-14T10:30:17.520Z,13.40
2022-10-14T10:33:09.141Z,13.50
2022-10-14T10:36:06.806Z,13.50
2022-10-14T10:39:00.726Z,13.60
2022-10-14T10:41:54.141Z,13.60
2022-10-14T10:44:49.199Z,13.60
2022-10-14T10:47:33.864Z,13.60
2022-10-14T10:50:48.281Z,13.70
2022-10-14T10:53:40.582Z,13.70
2022-10-14T10:56:41.482Z,13.80
2022-10-14T10:59:35.454Z,13.60
2022-10-14T11:02:27.495Z,13.50
2022-10-14T11:05:11.835Z,13.50
2022-10-14T11:08:14.691Z,13.50
2022-10-14T11:11:36.476Z,13.50
2022-10-14T11:14:38.085Z,13.50
2022-10-14T11:17:26.453Z,13.50
2022-10-14T11:20:38.121Z,13.50
2022-10-14T11:23:59.904Z,13.50
2022-10-14T11:27:03.226Z,13.50
2022-10-14T11:30:10.281Z,13.60
2022-10-14T11:33:02.632Z,13.70
2022-10-14T11:36:06.892Z,13.80
2022-10-14T11:39:30.783Z,13.90
2022-10-14T11:42:21.019Z,13.90
2022-10-14T11:45:01.052Z,13.80
2022-10-14T11:47:35.644Z,13.80
2022-10-14T11:50:36.107Z,13.70
2022-10-14T11:53:16.820Z,13.70
2022-10-14T11:55:52.961Z,13.70
2022-10-14T11:58:27.156Z,13.70
2022-10-14T12:01:15.974Z,13.70
2022-10-14T12:04:19.754Z,13.70
2022-10-14T12:07:00.603Z,13.70
2022-10-14T12:09:43.367Z,13.70
2022-10-14T12:12:14.496Z,13.70
2022-10-14T12:14:55.299Z,13.60
2022-10-14T12:17:40.700Z,13.60
2022-10-14T12:20:46.937Z,13.70
2022-10-14T12:23:31.515Z,13.70
2022-10-14T12:26:37.022Z,13.70
2022-10-14T12:29:04.597Z,13.70
2022-10-14T12:31:38.728Z,13.70
2022-10-14T12:34:11.681Z,13.70
2022-10-14T12:36:42.348Z,13.70
2022-10-14T12:39:18.064Z,13.70
2022-10-14T12:42:15.277Z,13.70
2022-10-14T12:44:52.120Z,13.70
2022-10-14T12:47:24.048Z,13.70
2022-10-14T12:49:57.007Z,13.60
2022-10-14T12:52:33.204Z,13.60
2022-10-14T12:55:08.352Z,13.60
2022-10-14T12:57:40.205Z,13.60
2022-10-14T13:00:23.943Z,13.60
2022-10-14T13:03:18.201Z,13.60
2022-10-14T13:05:45.728Z,13.60
2022-10-14T13:08:24.367Z,13.70
2022-10-14T13:11:00.212Z,13.60
2022-10-14T13:13:39.972Z,13.60
2022-10-14T13:16:26.085Z,13.60
2022-10-14T13:19:01.015Z,13.60
2022-10-14T13:21:36.210Z,13.60
2022-10-14T13:24:29.308Z,13.60
2022-10-14T13:26:55.956Z,13.70
2022-10-14T13:29:26.888Z,13.60
2022-10-14T13:32:28.619Z,13.60
2022-10-14T13:35:31.493Z,13.60
2022-10-14T13:38:12.530Z,13.60
2022-10-14T13:40:49.710Z,13.60
2022-10-14T13:43:21.180Z,13.60
2022-10-14T13:46:17.558Z,13.60
2022-10-14T13:48:48.231Z,13.60
2022-10-14T13:51:35.932Z,13.60
2022-10-14T13:54:30.892Z,13.60
2022-10-14T14:02:38.283Z,13.70
2022-10-14T14:05:05.619Z,13.80
2022-10-14T14:08:08.477Z,13.80
2022-10-14T14:10:25.133Z,13.70
2022-10-14T14:12:52.679Z,13.70
2022-10-14T14:15:26.982Z,13.70
2022-10-14T14:17:53.990Z,13.60
2022-10-14T14:20:26.301Z,13.60
2022-10-14T14:22:53.041Z,13.60
2022-10-14T14:25:38.171Z,13.60
2022-10-14T14:28:08.945Z,13.60
2022-10-14T14:30:38.960Z,13.60
2022-10-14T14:33:15.532Z,13.50
2022-10-14T14:35:54.101Z,13.50
2022-10-14T14:38:37.662Z,13.50
2022-10-14T14:41:17.948Z,13.50
2022-10-14T14:43:53.286Z,13.50
2022-10-14T14:46:38.127Z,13.50
2022-10-14T14:49:07.780Z,13.50
2022-10-14T14:51:40.583Z,13.50
2022-10-14T14:54:12.690Z,13.50
2022-10-14T14:56:48.387Z,13.50
2022-10-14T14:59:28.605Z,13.50
2022-10-14T15:04:34.797Z,13.50
2022-10-14T15:07:08.519Z,13.50
2022-10-14T15:09:48.808Z,13.40
2022-10-14T15:12:24.528Z,13.50
2022-10-14T15:14:56.426Z,13.50
2022-10-14T15:17:37.964Z,13.40
2022-10-14T15:20:04.728Z,13.50
2022-10-14T15:22:40.462Z,13.40
2022-10-14T15:25:23.299Z,13.50
2022-10-14T15:27:57.885Z,13.50
2022-10-14T15:30:36.893Z,13.50
2022-10-14T15:33:05.924Z,13.50
2022-10-14T15:35:34.989Z,13.50
2022-10-14T15:38:01.907Z,13.50
2022-10-14T15:40:32.272Z,13.50
2022-10-14T15:42:59.145Z,13.50
2022-10-14T15:45:26.568Z,13.60
2022-10-14T15:48:05.711Z,13.60
2022-10-14T15:50:33.184Z,13.50
2022-10-14T15:52:59.919Z,13.50
2022-10-14T15:55:29.950Z,13.50
2022-10-14T15:57:57.211Z,13.50
2022-10-14T16:00:25.909Z,13.50
2022-10-14T16:03:00.475Z,13.50
2022-10-14T16:05:29.385Z,13.50
2022-10-14T16:07:57.423Z,13.60
2022-10-14T16:10:28.215Z,13.60
2022-10-14T16:12:57.596Z,13.50
2022-10-14T16:15:43.745Z,13.50
2022-10-14T16:18:10.468Z,13.50
2022-10-14T16:20:38.078Z,13.50
2022-10-14T16:23:05.336Z,13.50
2022-10-14T16:25:41.093Z,13.60
2022-10-14T16:28:10.081Z,13.50
2022-10-14T16:30:49.961Z,13.50
2022-10-14T16:33:21.905Z,13.50
2022-10-14T16:35:55.200Z,13.50
2022-10-14T16:38:24.093Z,13.50
2022-10-14T16:40:59.027Z,13.50
2022-10-14T16:43:27.886Z,13.50
2022-10-14T16:45:59.800Z,13.50
2022-10-14T16:48:27.891Z,13.50
2022-10-14T16:50:55.203Z,13.50
2022-10-14T16:53:40.951Z,13.50
2022-10-14T16:56:38.182Z,13.50
2022-10-14T16:59:08.071Z,13.50
2022-10-14T17:01:35.276Z,13.50
2022-10-14T17:04:02.068Z,13.50
2022-10-14T17:06:28.954Z,13.50
2022-10-14T17:08:55.763Z,13.50
2022-10-14T17:11:23.373Z,13.50
2022-10-14T17:13:54.748Z,13.50
2022-10-14T17:16:22.439Z,13.50
2022-10-14T17:18:49.671Z,13.50
2022-10-14T17:21:16.883Z,13.50
2022-10-14T17:23:44.339Z,13.50
2022-10-14T17:26:14.995Z,13.60
2022-10-14T17:28:42.730Z,13.50
2022-10-14T17:31:15.898Z,13.50
2022-10-14T17:33:43.244Z,13.50
2022-10-14T17:36:27.424Z,13.50
2022-10-14T17:38:55.744Z,13.50
2022-10-14T17:41:24.961Z,13.50
2022-10-14T17:43:53.367Z,13.50
2022-10-14T17:46:23.853Z,13.50
2022-10-14T17:48:57.125Z,13.50
2022-10-14T17:51:25.638Z,13.50
2022-10-14T17:54:02.424Z,13.50
2022-10-14T17:56:32.283Z,13.50
2022-10-14T17:59:02.356Z,13.50
2022-10-14T18:01:37.826Z,13.50
2022-10-14T18:04:17.833Z,13.50
2022-10-14T18:06:46.170Z,13.50
2022-10-14T18:09:13.374Z,13.50
2022-10-14T18:12:07.676Z,13.50
2022-10-14T18:14:30.176Z,13.50
2022-10-14T18:16:57.510Z,13.50
2022-10-14T18:19:24.240Z,13.40
2022-10-14T18:21:51.623Z,13.40
2022-10-14T18:24:18.412Z,13.40
2022-10-14T18:26:45.114Z,13.40
2022-10-14T18:29:11.899Z,13.50
2022-10-14T18:31:39.315Z,13.50
2022-10-14T18:34:11.367Z,13.50
2022-10-14T18:36:38.764Z,13.60
2022-10-14T18:39:10.265Z,13.60
2022-10-14T18:41:37.468Z,13.60
2022-10-14T18:44:05.636Z,13.60
2022-10-14T18:46:36.085Z,13.60
2022-10-14T18:49:05.905Z,13.60
2022-10-14T18:51:37.336Z,13.60
2022-10-14T18:54:08.225Z,13.50
2022-10-14T18:56:38.782Z,13.40
2022-10-14T18:59:10.824Z,13.50
2022-10-14T19:01:39.678Z,13.50
2022-10-14T19:04:10.643Z,13.50
2022-10-14T19:06:38.920Z,13.60
2022-10-14T19:09:06.527Z,13.50
2022-10-14T19:11:34.388Z,13.50
2022-10-14T19:14:04.141Z,13.50
2022-10-14T19:16:37.211Z,13.60
2022-10-14T19:19:16.729Z,13.60
2022-10-14T19:21:45.634Z,13.60
2022-10-14T19:24:13.739Z,13.50
2022-10-14T19:26:45.216Z,13.60
2022-10-14T19:29:14.983Z,13.60
2022-10-14T19:31:43.777Z,13.60
2022-10-14T19:34:14.591Z,13.60
2022-10-14T19:36:42.659Z,13.60
2022-10-14T19:39:14.393Z,13.70
2022-10-14T19:41:46.235Z,13.60
2022-10-14T19:44:14.862Z,13.60
2022-10-14T19:46:43.103Z,13.60
2022-10-14T19:49:13.446Z,13.60
2022-10-14T19:51:40.279Z,13.60
2022-10-14T19:54:07.549Z,13.60
2022-10-14T19:56:34.306Z,13.60
2022-10-14T19:59:01.764Z,13.60
2022-10-14T20:01:30.629Z,13.60
2022-10-14T20:04:01.282Z,13.60
2022-10-14T20:06:33.725Z,13.60
2022-10-14T20:09:00.695Z,13.60
2022-10-14T20:11:28.510Z,13.60
2022-10-14T20:13:55.327Z,13.60
2022-10-14T20:16:22.126Z,13.60
2022-10-14T20:18:48.871Z,13.60
2022-10-14T20:21:16.508Z,13.60
2022-10-14T20:23:43.960Z,13.80
2022-10-14T20:26:20.285Z,13.60
2022-10-14T20:28:50.645Z,13.60
2022-10-14T20:31:21.013Z,13.60
2022-10-14T20:33:48.540Z,13.70
2022-10-14T20:36:21.195Z,13.60
2022-10-14T20:38:48.679Z,13.60
2022-10-14T20:41:20.460Z,13.60
2022-10-14T20:43:48.971Z,13.60
2022-10-14T20:46:16.685Z,13.60
2022-10-14T20:48:43.918Z,13.60
2022-10-14T20:51:15.051Z,13.60
2022-10-14T20:53:42.070Z,13.60
2022-10-14T20:56:11.768Z,13.60
2022-10-14T20:58:39.503Z,13.50
2022-10-14T21:01:14.156Z,13.50
2022-10-14T21:03:43.719Z,13.50
2022-10-14T21:06:16.293Z,13.50
2022-10-14T21:08:43.350Z,13.50
2022-10-14T21:11:15.740Z,13.50
2022-10-14T21:13:48.586Z,13.50
2022-10-14T21:16:24.459Z,13.50
2022-10-14T21:18:57.856Z,13.50
2022-10-14T21:21:28.190Z,13.50
2022-10-14T21:23:56.335Z,13.50
2022-10-14T21:26:23.340Z,13.50
2022-10-14T21:28:50.130Z,13.50
2022-10-14T21:31:19.318Z,13.50
2022-10-14T21:33:47.973Z,13.50
2022-10-14T21:36:16.852Z,13.50
2022-10-14T21:38:43.957Z,13.50
2022-10-14T21:41:11.169Z,13.50
2022-10-14T21:43:39.009Z,13.50
2022-10-14T21:46:12.509Z,13.50
2022-10-14T21:48:40.744Z,13.50
2022-10-14T21:51:17.073Z,13.50
2022-10-14T21:53:46.096Z,13.50
2022-10-14T21:56:15.084Z,13.50
2022-10-14T21:58:43.337Z,13.50
2022-10-14T22:01:14.007Z,13.50
2022-10-14T22:03:42.065Z,13.50
2022-10-14T22:06:15.764Z,13.40
2022-10-14T22:08:46.102Z,13.40
2022-10-14T22:11:35.253Z,13.40
2022-10-14T22:14:05.791Z,13.40
2022-10-14T22:16:33.012Z,13.40
2022-10-14T22:19:01.915Z,13.40
2022-10-14T22:21:32.139Z,13.30
2022-10-14T22:23:59.378Z,13.30
2022-10-14T22:26:28.892Z,13.20
2022-10-14T22:29:12.843Z,13.20
2022-10-14T22:31:40.045Z,13.20
2022-10-14T22:34:09.978Z,13.20
2022-10-14T22:36:36.980Z,13.20
2022-10-14T22:39:13.498Z,13.20
2022-10-14T22:41:40.269Z,13.20
2022-10-14T22:44:08.393Z,13.20
2022-10-14T22:46:38.709Z,13.20
2022-10-14T22:49:05.605Z,13.20
2022-10-14T22:51:40.491Z,13.20
2022-10-14T22:54:08.878Z,13.20
2022-10-14T22:56:35.780Z,13.20
2022-10-14T22:59:10.408Z,13.20
2022-10-14T23:01:38.969Z,13.20
2022-10-14T23:04:06.824Z,13.20
2022-10-14T23:06:33.790Z,13.20
2022-10-14T23:09:00.641Z,13.10
2022-10-14T23:11:29.698Z,13.10
2022-10-14T23:13:57.569Z,13.10
2022-10-14T23:16:28.287Z,13.20
2022-10-14T23:18:57.792Z,13.20
2022-10-14T23:21:37.372Z,13.20
2022-10-14T23:24:08.757Z,13.20
2022-10-14T23:26:36.608Z,13.20
2022-10-14T23:29:08.132Z,13.10
2022-10-14T23:31:38.060Z,13.20
2022-10-14T23:34:10.463Z,13.20
2022-10-14T23:36:37.611Z,13.20
2022-10-14T23:39:05.015Z,13.20
2022-10-14T23:41:31.939Z,13.20
2022-10-14T23:43:58.672Z,13.20
2022-10-14T23:46:25.427Z,13.20
2022-10-14T23:49:06.609Z,13.20
2022-10-14T23:51:35.309Z,13.10
2022-10-14T23:54:02.118Z,13.10
2022-10-14T23:56:28.867Z,13.10
2022-10-14T23:58:55.546Z,13.10
